Memphis International Airport

KMEM | MEM

Memphis , Tennessee , United States

Thursday, September 19th, 2019 | 14:21

Weather

KMEM 191854Z 10005KT 10SM SCT055 36/20 A3002 RMK AO2 SLP159 T03560200 $

Charts

82 Available

Gates

286 Available

Runways

4 Available

Events

No events for this airport


New event